AirNav   Air Wisconsin Up To $57,000 Bonus
 
 661 users online  

M90 William Robert Johnston Municipal Airport
Mendota, California, USA

GOING TO MENDOTA?


FAA INFORMATION EFFECTIVE 10 OCTOBER 2019

Location

FAA Identifier: M90
Lat/Long: 36-45-31.0000N 120-22-17.0000W
36-45.516667N 120-22.283333W
36.7586111,-120.3713889
(estimated)
Elevation: 162 ft. / 49 m (estimated)
Variation: 15E (1985)
Time zone: UTC -7 (UTC -8 during Standard Time)
Zip code: 93640

Airport Operations

Airport use: Open to the public
Activation date: 08/1957
Control tower: no
ARTCC: OAKLAND CENTER
FSS: RANCHO MURIETA FLIGHT SERVICE STATION
NOTAMs facility: RIU (NOTAM-D service available)
Attendance: UNATNDD
Wind indicator: yes
Segmented circle: yes

Airport Communications

CTAF: 122.9
WX ASOS at MAE (18 nm NE): 134.725 (559-674-1781)

Nearby radio navigation aids

VOR radial/distance  VOR name  Freq  Var
PXNr066/19.8PANOCHE VORTAC112.6016E
HYPr162/27.7EL NIDO VOR/DME114.2015E
CZQr239/27.8CLOVIS VORTAC112.9015E
ROMr005/(39.7)PRIEST VOR110.0016E

Airport Services

Parking: tiedowns

Runway Information

Runway 15/33

Dimensions: 3499 x 50 ft. / 1066 x 15 m
Surface: asphalt, in fair condition
Weight bearing capacity: 
Single wheel: 12.5
RUNWAY 15  RUNWAY 33
Latitude: 36-45.798333N36-45.251500N
Longitude: 120-22.404667W120-22.177167W
Traffic pattern: leftright
Displaced threshold: no777 ft.
Markings: basic, in fair conditionbasic, in fair condition
Runway end identifier lights: nono
Obstructions: none17 ft. bldg, 423 ft. from runway, 190 ft. left of centerline, 13:1 slope to clear
APCH RATIO TO DSPLCD THR 50:1.

Airport Ownership and Management from official FAA records

Ownership: Publicly-owned
Owner: CITY OF MENDOTA
643 QUINCE ST
MENDOTA, CA 93640-2334
Phone 559-655-4298
Manager: CRISTIAN GONZALES
643 QUINCE ST
MENDOTA, CA 93640-2334
Phone (559) 655-4298
CITY MANAGER X 109.

Airport Operational Statistics

Aircraft operations: avg 77/week *
50% transient general aviation
50% local general aviation
* for 12-month period ending 12 April 2019

Additional Remarks

ARPT CLSD NIGHTS.
FOR CD CTC NORCAL APCH AT 916-361-0516.
PARL TWY ROUGH/UNEVEN SFC; EXTSV ASPH RPR AND PATCHING.

Instrument Procedures

There are no published instrument procedures at M90.

Some nearby airports with instrument procedures:

F34 - Firebaugh Airport (8 nm NW)
KMAE - Madera Municipal Airport (18 nm NE)
KFCH - Fresno Chandler Executive Airport (27 nm E)
KLSN - Los Banos Municipal Airport (30 nm NW)
KFAT - Fresno Yosemite International Airport (31 nm E)
 
Loc | Ops | Rwys | IFR | FBO | Links
Com | Nav | Svcs | Stats | Notes
Area around M90 (William Robert Johnston Municipal Airport)
 
Road maps at: MapQuest Bing Google
 
Aerial photo
WARNING: Photo may not be current or correct
Aerial photo of M90 (William Robert Johnston Municipal Airport)
Do you have a better or more recent aerial photo of William Robert Johnston Municipal Airport that you would like to share? If so, please send us your photo.

 
Sectional chart

 
Airport distance calculator
Flying to William Robert Johnston Municipal Airport? Find the distance to fly.

From to M90

Sunrise and sunset
Times for 15-Oct-2019
 Local
(UTC-7)
 Zulu
(UTC)
Morning civil twilight06:4413:44
Sunrise07:1014:10
Sunset18:2501:25
Evening civil twilight18:5101:51

Current date and time
Zulu (UTC)  16-Oct-2019 03:35:20
Local (UTC-7)  15-Oct-2019 20:35:20
 
METAR
KMAE 
18nm NE 
160253Z AUTO 32003KT 9SM CLR 18/05 A2999 RMK AO2 SLP155 T01830050 53003
KFCH 
27nm E 
160315Z AUTO 00000KT 10SM CLR 20/06 A3000 RMK A01
KFAT 
32nm E 
160253Z 30003KT 10SM CLR 23/05 A2999 RMK AO2 SLP154 T02280050 53005
KMCE 
32nm N 
160253Z AUTO 32004KT 10SM CLR 18/05 A2998 RMK AO2 SLP152 T01830050 53002
KNLC 
33nm SE 
160156Z 34003KT 10SM CLR 21/03 A2998 RMK SLP151 RH/29 T02110028
TAF
KFAT 
32nm E 
151728Z 1518/1618 VRB04KT P6SM SKC
KMCE 
32nm N 
151728Z 1518/1618 VRB04KT P6SM SKC
KNLC 
33nm SE 
1523/1623 VRB06KT 9999 SKC 532609 533505 QNH2994INS TEMPO 1523/1604 01008KT SCT220 T09/1613Z T29/1623Z FS30067
KMER 
39nm N 
151728Z 1518/1618 VRB04KT P6SM SKC AMD NOT SKED= TAF MGGT 151700Z 1518/1618 15016KT 9999 BKN018 TX23/1520Z TN15/1612Z TEMPO 1518/1618 7000 RADZ BKN010 OVC080 BECMG 1601/1603 09006KT BKN012 BECMG 1606/1608 00000KT BECMG 1615/1617 18008KT BKN018
NOTAMs
Click for the latest NOTAMs
NOTAMs are issued by the DoD/FAA and will open in a separate window not controlled by AirNav.

 

 
 

Would you like to see your business listed on this page?

 If your business provides an interesting product or service to pilots, flight crews, aircraft, or users of the William Robert Johnston Municipal Airport, you should consider listing it here.  To start the listing process, click on the button below
 
Add a business
 

Other Pages about William Robert Johnston Municipal Airport

Update a link
 
Copyright © AirNav, LLC. All rights reserved. Privacy Policy  Contact